createdAt,value
2023-04-24T00:00:50.611Z,30.22
2023-04-24T00:01:50.656Z,30.24
2023-04-24T00:02:50.752Z,30.30
2023-04-24T00:03:50.726Z,30.29
2023-04-24T00:04:50.604Z,30.32
2023-04-24T00:05:50.577Z,30.28
2023-04-24T00:06:50.596Z,30.30
2023-04-24T00:07:50.547Z,30.28
2023-04-24T00:08:50.560Z,30.34
2023-04-24T00:09:50.540Z,30.32
2023-04-24T00:10:50.537Z,30.34
2023-04-24T00:11:50.526Z,30.34
2023-04-24T00:12:50.520Z,30.36
2023-04-24T00:13:50.531Z,30.42
2023-04-24T00:14:50.540Z,30.35
2023-04-24T00:15:50.526Z,30.35
2023-04-24T00:16:50.531Z,30.38
2023-04-24T00:17:50.532Z,30.33
2023-04-24T00:18:50.512Z,30.34
2023-04-24T00:19:50.516Z,30.37
2023-04-24T00:20:50.515Z,30.41
2023-04-24T00:21:50.504Z,30.42
2023-04-24T00:22:50.483Z,30.44
2023-04-24T00:23:50.498Z,30.40
2023-04-24T00:24:50.496Z,30.42
2023-04-24T00:25:50.508Z,30.47
2023-04-24T00:26:50.468Z,30.44
2023-04-24T00:27:50.487Z,30.45
2023-04-24T00:28:50.483Z,30.43
2023-04-24T00:29:50.451Z,30.39
2023-04-24T00:30:50.462Z,30.42
2023-04-24T00:31:50.488Z,30.43
2023-04-24T00:32:50.497Z,30.42
2023-04-24T00:33:50.439Z,30.46
2023-04-24T00:34:50.424Z,30.45
2023-04-24T00:35:50.452Z,30.44
2023-04-24T00:36:50.432Z,30.47
2023-04-24T00:37:50.415Z,30.48
2023-04-24T00:38:50.405Z,30.48
2023-04-24T00:39:50.415Z,30.51
2023-04-24T00:40:50.425Z,30.49
2023-04-24T00:41:50.396Z,30.52
2023-04-24T00:42:50.412Z,30.50
2023-04-24T00:43:50.382Z,30.53
2023-04-24T00:44:50.384Z,30.50
2023-04-24T00:45:50.428Z,30.52
2023-04-24T00:46:50.391Z,30.52
2023-04-24T00:47:50.427Z,30.52
2023-04-24T00:48:50.388Z,30.53
2023-04-24T00:49:50.364Z,30.52
2023-04-24T00:50:50.373Z,30.54
2023-04-24T00:51:50.365Z,30.50
2023-04-24T00:52:50.388Z,30.53
2023-04-24T00:53:50.339Z,30.56
2023-04-24T00:54:50.344Z,30.55
2023-04-24T00:55:50.338Z,30.57
2023-04-24T00:56:50.337Z,30.54
2023-04-24T00:57:50.356Z,30.53
2023-04-24T00:58:50.325Z,30.57
2023-04-24T00:59:50.334Z,30.57
2023-04-24T01:00:50.316Z,30.59
2023-04-24T01:01:50.433Z,30.60
2023-04-24T01:02:50.431Z,30.61
2023-04-24T01:03:50.404Z,30.59
2023-04-24T01:04:50.304Z,30.55
2023-04-24T01:05:50.303Z,30.60
2023-04-24T01:06:52.102Z,30.61
2023-04-24T01:07:50.338Z,30.59
2023-04-24T01:08:50.301Z,30.59
2023-04-24T01:09:50.292Z,30.62
2023-04-24T01:10:50.282Z,30.63
2023-04-24T01:11:50.293Z,30.66
2023-04-24T01:12:50.280Z,30.66
2023-04-24T01:13:50.280Z,30.67
2023-04-24T01:14:50.265Z,30.70
2023-04-24T01:15:50.301Z,30.72
2023-04-24T01:16:50.233Z,30.65
2023-04-24T01:17:50.276Z,30.73
2023-04-24T01:18:50.236Z,30.70
2023-04-24T01:19:50.240Z,30.71
2023-04-24T01:20:50.218Z,30.78
2023-04-24T01:21:50.219Z,30.76
2023-04-24T01:22:50.210Z,30.79
2023-04-24T01:23:50.190Z,30.77
2023-04-24T01:24:50.177Z,30.77
2023-04-24T01:25:50.193Z,30.87
2023-04-24T01:26:50.182Z,30.84
2023-04-24T01:27:50.178Z,30.83
2023-04-24T01:28:50.182Z,30.90
2023-04-24T01:29:50.144Z,30.87
2023-04-24T01:30:50.160Z,30.87
2023-04-24T01:31:50.181Z,30.84
2023-04-24T01:32:50.167Z,30.89
2023-04-24T01:33:50.133Z,30.90
2023-04-24T01:34:50.128Z,30.94
2023-04-24T01:35:50.117Z,30.89
2023-04-24T01:36:50.104Z,30.92
2023-04-24T01:37:50.099Z,30.91
2023-04-24T01:38:50.120Z,30.95
2023-04-24T01:39:50.105Z,30.93
2023-04-24T01:40:50.080Z,30.95
2023-04-24T01:41:50.071Z,30.93
2023-04-24T01:42:50.087Z,30.96
2023-04-24T01:43:50.077Z,30.97
2023-04-24T01:44:50.061Z,31.00
2023-04-24T01:45:50.059Z,30.98
2023-04-24T01:46:50.095Z,30.94
2023-04-24T01:47:50.092Z,30.97
2023-04-24T01:48:50.025Z,31.02
2023-04-24T01:49:50.024Z,30.99
2023-04-24T01:50:50.030Z,30.98
2023-04-24T01:51:50.019Z,31.02
2023-04-24T01:52:50.005Z,31.03
2023-04-24T01:53:49.985Z,31.02
2023-04-24T01:54:49.988Z,31.06
2023-04-24T01:55:49.989Z,31.06
2023-04-24T01:56:49.995Z,31.02
2023-04-24T01:57:49.977Z,31.06
2023-04-24T01:58:49.960Z,31.02
2023-04-24T01:59:49.969Z,31.05
2023-04-24T02:00:49.987Z,31.05
2023-04-24T02:01:49.977Z,31.08
2023-04-24T02:02:50.103Z,31.08
2023-04-24T02:03:49.984Z,31.05
2023-04-24T02:04:49.922Z,31.07
2023-04-24T02:05:49.917Z,31.08
2023-04-24T02:06:49.926Z,31.10
2023-04-24T02:07:49.982Z,31.10
2023-04-24T02:08:49.906Z,31.08
2023-04-24T02:09:49.893Z,31.09
2023-04-24T02:10:49.875Z,31.07
2023-04-24T02:11:49.876Z,31.09
2023-04-24T02:12:49.870Z,31.09
2023-04-24T02:13:49.863Z,31.10
2023-04-24T02:14:49.840Z,31.07
2023-04-24T02:15:49.855Z,31.06
2023-04-24T02:16:49.911Z,31.09
2023-04-24T02:17:49.854Z,31.10
2023-04-24T02:18:49.819Z,31.15
2023-04-24T02:19:49.811Z,31.12
2023-04-24T02:20:49.809Z,31.13
2023-04-24T02:21:49.803Z,31.11
2023-04-24T02:22:49.806Z,31.13
2023-04-24T02:23:49.797Z,31.14
2023-04-24T02:24:49.792Z,31.12
2023-04-24T02:25:49.789Z,31.13
2023-04-24T02:26:49.782Z,31.12
2023-04-24T02:27:49.765Z,31.14
2023-04-24T02:28:49.786Z,31.13
2023-04-24T02:29:49.745Z,31.13
2023-04-24T02:30:49.753Z,31.16
2023-04-24T02:31:49.801Z,31.12
2023-04-24T02:32:49.727Z,31.10
2023-04-24T02:33:49.720Z,31.11
2023-04-24T02:34:49.740Z,31.10
2023-04-24T02:35:49.720Z,31.11
2023-04-24T02:36:49.697Z,31.10
2023-04-24T02:37:49.691Z,31.08
2023-04-24T02:38:49.683Z,31.09
2023-04-24T02:39:49.682Z,31.08
2023-04-24T02:40:49.683Z,31.09
2023-04-24T02:41:49.714Z,31.09
2023-04-24T02:42:49.672Z,31.10
2023-04-24T02:43:49.666Z,31.08
2023-04-24T02:44:49.640Z,31.07
2023-04-24T02:45:49.674Z,31.03
2023-04-24T02:46:49.640Z,31.09
2023-04-24T02:47:49.633Z,31.06
2023-04-24T02:48:49.619Z,31.10
2023-04-24T02:49:49.608Z,31.06
2023-04-24T02:50:49.621Z,31.05
2023-04-24T02:51:49.590Z,31.07
2023-04-24T02:52:49.606Z,31.05
2023-04-24T02:53:49.599Z,31.06
2023-04-24T02:54:49.586Z,31.05
2023-04-24T02:55:49.578Z,31.03
2023-04-24T02:56:49.588Z,31.02
2023-04-24T02:57:49.554Z,31.03
2023-04-24T02:58:49.569Z,31.01
2023-04-24T02:59:49.554Z,31.01
2023-04-24T03:00:49.547Z,31.00
2023-04-24T03:01:49.574Z,30.94
2023-04-24T03:02:49.641Z,30.95
2023-04-24T03:03:49.633Z,30.98
2023-04-24T03:04:49.585Z,30.94
2023-04-24T03:05:49.511Z,30.97
2023-04-24T03:06:49.519Z,30.94
2023-04-24T03:07:49.497Z,30.97
2023-04-24T03:08:49.506Z,30.92
2023-04-24T03:09:49.484Z,30.95
2023-04-24T03:10:49.487Z,30.95
2023-04-24T03:11:49.473Z,30.93
2023-04-24T03:12:49.471Z,30.93
2023-04-24T03:13:49.447Z,30.93
2023-04-24T03:14:49.457Z,30.92
2023-04-24T03:15:49.454Z,30.92
2023-04-24T03:16:49.436Z,30.93
2023-04-24T03:17:49.485Z,30.91
2023-04-24T03:18:49.440Z,30.93
2023-04-24T03:19:49.408Z,30.92
2023-04-24T03:20:49.415Z,30.91
2023-04-24T03:21:49.412Z,30.89
2023-04-24T03:22:49.415Z,30.90
2023-04-24T03:23:49.401Z,30.85
2023-04-24T03:24:49.382Z,30.91
2023-04-24T03:25:49.399Z,30.88
2023-04-24T03:26:49.376Z,30.90
2023-04-24T03:27:49.390Z,30.89
2023-04-24T03:28:49.372Z,30.86
2023-04-24T03:29:49.372Z,30.89
2023-04-24T03:30:49.365Z,30.90
2023-04-24T03:31:49.402Z,30.87
2023-04-24T03:32:49.372Z,30.91
2023-04-24T03:33:49.343Z,30.90
2023-04-24T03:34:49.337Z,30.90
2023-04-24T03:35:49.344Z,30.90
2023-04-24T03:36:49.326Z,30.89
2023-04-24T03:37:49.338Z,30.86
2023-04-24T03:38:49.298Z,30.89
2023-04-24T03:39:49.298Z,30.89
2023-04-24T03:40:49.286Z,30.89
2023-04-24T03:41:49.296Z,30.87
2023-04-24T03:42:49.269Z,30.86
2023-04-24T03:43:49.255Z,30.85
2023-04-24T03:44:49.269Z,30.88
2023-04-24T03:45:49.280Z,30.89
2023-04-24T03:46:49.260Z,30.90
2023-04-24T03:47:49.252Z,30.89
2023-04-24T03:48:49.242Z,30.86
2023-04-24T03:49:49.256Z,30.86
2023-04-24T03:50:49.216Z,30.86
2023-04-24T03:51:49.226Z,30.86
2023-04-24T03:52:49.223Z,30.89
2023-04-24T03:53:49.208Z,30.85
2023-04-24T03:54:49.197Z,30.87
2023-04-24T03:55:49.198Z,30.84
2023-04-24T03:56:49.196Z,30.84
2023-04-24T03:57:49.174Z,30.84
2023-04-24T03:58:49.181Z,30.84
2023-04-24T03:59:49.183Z,30.82
2023-04-24T04:00:49.146Z,30.82
2023-04-24T04:01:49.177Z,30.86
2023-04-24T04:02:49.229Z,30.85
2023-04-24T04:03:49.326Z,30.83
2023-04-24T04:04:49.347Z,30.81
2023-04-24T04:05:49.130Z,30.82
2023-04-24T04:06:49.128Z,30.84
2023-04-24T04:07:49.105Z,30.81
2023-04-24T04:08:49.101Z,30.83
2023-04-24T04:09:49.100Z,30.79
2023-04-24T04:10:49.095Z,30.82
2023-04-24T04:11:49.087Z,30.83
2023-04-24T04:12:49.072Z,30.81
2023-04-24T04:13:49.130Z,30.84
2023-04-24T04:14:49.073Z,30.83
2023-04-24T04:15:49.057Z,30.82
2023-04-24T04:16:49.141Z,30.80
2023-04-24T04:17:49.080Z,30.80
2023-04-24T04:18:49.062Z,30.81
2023-04-24T04:19:49.037Z,30.80
2023-04-24T04:20:49.063Z,30.79
2023-04-24T04:21:49.020Z,30.78
2023-04-24T04:22:49.016Z,30.80
2023-04-24T04:23:49.015Z,30.78
2023-04-24T04:24:49.024Z,30.78
2023-04-24T04:25:49.017Z,30.79
2023-04-24T04:26:48.990Z,30.77
2023-04-24T04:27:48.999Z,30.79
2023-04-24T04:28:48.992Z,30.79
2023-04-24T04:29:48.985Z,30.77
2023-04-24T04:30:48.962Z,30.77
2023-04-24T04:31:48.992Z,30.77
2023-04-24T04:32:48.966Z,30.76
2023-04-24T04:33:48.954Z,30.74
2023-04-24T04:34:48.932Z,30.74
2023-04-24T04:35:48.930Z,30.77
2023-04-24T04:36:48.942Z,30.75
2023-04-24T04:37:48.924Z,30.79
2023-04-24T04:38:48.905Z,30.78
2023-04-24T04:39:48.906Z,30.81
2023-04-24T04:40:48.897Z,30.83
2023-04-24T04:41:48.893Z,30.80
2023-04-24T04:42:48.880Z,30.80
2023-04-24T04:43:48.879Z,30.84
2023-04-24T04:44:48.881Z,30.82
2023-04-24T04:45:48.903Z,30.80
2023-04-24T04:46:48.856Z,30.80
2023-04-24T04:47:48.963Z,30.79
2023-04-24T04:48:48.848Z,30.80
2023-04-24T04:49:48.838Z,30.81
2023-04-24T04:50:48.849Z,30.84
2023-04-24T04:51:48.821Z,30.86
2023-04-24T04:52:48.825Z,30.86
2023-04-24T04:53:48.821Z,30.88
2023-04-24T04:54:48.805Z,30.85
2023-04-24T04:55:48.820Z,30.87
2023-04-24T04:56:48.827Z,30.84
2023-04-24T04:57:48.785Z,30.82
2023-04-24T04:58:48.795Z,30.87
2023-04-24T04:59:48.773Z,30.83
2023-04-24T05:00:48.784Z,30.88
2023-04-24T05:01:48.761Z,30.84
2023-04-24T05:02:48.904Z,30.84
2023-04-24T05:03:48.875Z,30.88
2023-04-24T05:04:48.935Z,30.89
2023-04-24T05:05:48.749Z,30.88
2023-04-24T05:06:48.767Z,30.85
2023-04-24T05:07:48.769Z,30.88
2023-04-24T05:08:48.741Z,30.89
2023-04-24T05:09:48.767Z,30.92
2023-04-24T05:10:48.755Z,30.90
2023-04-24T05:11:48.778Z,30.87
2023-04-24T05:12:48.782Z,30.90
2023-04-24T05:13:48.780Z,30.90
2023-04-24T05:14:48.814Z,30.91
2023-04-24T05:15:48.803Z,30.89
2023-04-24T05:16:48.803Z,30.92
2023-04-24T05:17:48.887Z,30.91
2023-04-24T05:18:48.799Z,30.92
2023-04-24T05:19:48.825Z,30.92
2023-04-24T05:20:48.836Z,30.92
2023-04-24T05:21:48.817Z,30.92
2023-04-24T05:22:48.837Z,30.95
2023-04-24T05:23:48.854Z,30.90
2023-04-24T05:24:48.882Z,30.90
2023-04-24T05:25:48.880Z,30.90
2023-04-24T05:26:48.891Z,30.98
2023-04-24T05:27:48.891Z,31.15
2023-04-24T05:28:48.873Z,31.18
2023-04-24T05:29:48.913Z,31.22
2023-04-24T05:30:48.892Z,31.72
2023-04-24T05:31:48.956Z,31.58
2023-04-24T05:32:49.050Z,31.75
2023-04-24T05:33:48.927Z,32.04
2023-04-24T05:34:48.949Z,32.21
2023-04-24T05:35:48.971Z,32.23
2023-04-24T05:36:48.968Z,32.28
2023-04-24T05:37:48.972Z,32.80
2023-04-24T05:38:48.978Z,32.46
2023-04-24T05:39:48.963Z,32.55
2023-04-24T05:40:48.965Z,33.26
2023-04-24T05:41:49.185Z,34.24
2023-04-24T05:42:48.972Z,33.96
2023-04-24T05:43:48.981Z,33.94
2023-04-24T05:44:49.376Z,34.25
2023-04-24T05:45:49.050Z,33.92
2023-04-24T05:46:49.240Z,33.76
2023-04-24T05:47:49.027Z,33.97
2023-04-24T05:48:49.016Z,33.97
2023-04-24T05:49:49.023Z,34.22
2023-04-24T05:50:49.013Z,35.20
2023-04-24T05:51:48.972Z,34.74
2023-04-24T05:52:49.021Z,34.62
2023-04-24T05:53:48.974Z,35.36
2023-04-24T05:54:48.975Z,35.31
2023-04-24T05:55:48.992Z,34.92
2023-04-24T05:56:49.022Z,34.80
2023-04-24T05:57:49.065Z,34.78
2023-04-24T05:58:49.077Z,34.77
2023-04-24T05:59:49.089Z,34.76
2023-04-24T06:00:49.153Z,34.87
2023-04-24T06:01:49.252Z,35.02
2023-04-24T06:02:49.420Z,34.91
2023-04-24T06:03:49.549Z,34.93
2023-04-24T06:04:49.362Z,35.20
2023-04-24T06:05:49.280Z,35.28
2023-04-24T06:06:49.309Z,35.23
2023-04-24T06:07:49.358Z,35.42
2023-04-24T06:08:49.407Z,35.53
2023-04-24T06:09:49.471Z,35.45
2023-04-24T06:10:49.540Z,35.35
2023-04-24T06:11:49.609Z,35.40
2023-04-24T06:12:49.654Z,35.29
2023-04-24T06:13:49.697Z,35.39
2023-04-24T06:14:49.742Z,35.32
2023-04-24T06:15:49.785Z,35.22
2023-04-24T06:16:50.546Z,35.31
2023-04-24T06:17:49.943Z,35.14
2023-04-24T06:18:49.898Z,35.15
2023-04-24T06:19:49.960Z,35.11
2023-04-24T06:20:49.997Z,35.17
2023-04-24T06:21:50.081Z,35.05
2023-04-24T06:22:50.118Z,34.93
2023-04-24T06:23:50.184Z,34.91
2023-04-24T06:24:50.255Z,35.02
2023-04-24T06:25:50.739Z,35.07
2023-04-24T06:26:50.703Z,35.17
2023-04-24T06:27:50.443Z,35.15
2023-04-24T06:28:50.513Z,35.10
2023-04-24T06:29:50.564Z,35.17
2023-04-24T06:30:50.751Z,35.11
2023-04-24T06:31:50.765Z,35.22
2023-04-24T06:32:50.825Z,35.16
2023-04-24T06:33:50.830Z,34.98
2023-04-24T06:34:50.889Z,35.19
2023-04-24T06:35:50.951Z,35.03
2023-04-24T06:36:51.220Z,34.96
2023-04-24T06:37:51.056Z,34.98
2023-04-24T06:38:51.110Z,34.81
2023-04-24T06:39:51.175Z,34.77
2023-04-24T06:40:51.242Z,34.73
2023-04-24T06:41:51.712Z,34.77
2023-04-24T06:42:51.369Z,34.92
2023-04-24T06:43:51.449Z,34.82
2023-04-24T06:44:51.509Z,34.90
2023-04-24T06:45:51.583Z,34.94
2023-04-24T06:46:51.643Z,35.02
2023-04-24T06:47:51.710Z,35.05
2023-04-24T06:48:51.764Z,35.08
2023-04-24T06:49:51.841Z,34.96
2023-04-24T06:50:51.835Z,35.10
2023-04-24T06:51:52.216Z,35.04
2023-04-24T06:52:51.960Z,34.99
2023-04-24T06:53:51.992Z,34.99
2023-04-24T06:54:52.114Z,35.09
2023-04-24T06:55:52.124Z,35.10
2023-04-24T06:56:52.186Z,34.98
2023-04-24T06:57:52.218Z,35.14
2023-04-24T06:58:52.557Z,34.97
2023-04-24T06:59:52.337Z,35.02
2023-04-24T07:00:52.395Z,35.17
2023-04-24T07:01:53.948Z,35.25
2023-04-24T07:02:52.496Z,35.22
2023-04-24T07:03:52.499Z,35.29
2023-04-24T07:04:52.393Z,35.26
2023-04-24T07:05:52.384Z,35.29
2023-04-24T07:06:52.363Z,35.19
2023-04-24T07:07:52.384Z,35.08
2023-04-24T07:08:52.388Z,35.11
2023-04-24T07:09:52.366Z,35.16
2023-04-24T07:10:52.377Z,35.22
2023-04-24T07:11:52.363Z,35.19
2023-04-24T07:12:52.318Z,35.16
2023-04-24T07:13:52.326Z,35.16
2023-04-24T07:14:52.320Z,35.16
2023-04-24T07:15:52.362Z,35.16
2023-04-24T07:16:52.309Z,35.15
2023-04-24T07:17:52.360Z,35.13
2023-04-24T07:18:52.291Z,34.96
2023-04-24T07:19:52.272Z,34.77
2023-04-24T07:20:52.275Z,35.01
2023-04-24T07:21:52.283Z,35.13
2023-04-24T07:22:52.258Z,34.70
2023-04-24T07:23:52.271Z,35.31
2023-04-24T07:24:52.255Z,35.27
2023-04-24T07:25:52.244Z,35.27
2023-04-24T07:26:52.232Z,35.03
2023-04-24T07:27:52.224Z,34.34
2023-04-24T07:28:52.216Z,34.56
2023-04-24T07:29:52.199Z,34.69
2023-04-24T07:30:52.203Z,35.06
2023-04-24T07:31:52.282Z,35.82
2023-04-24T07:32:52.201Z,36.23
2023-04-24T07:33:52.192Z,36.29
2023-04-24T07:34:52.208Z,36.22
2023-04-24T07:35:52.161Z,36.52
2023-04-24T07:36:52.248Z,36.30
2023-04-24T07:37:52.165Z,36.26
2023-04-24T07:38:52.140Z,36.02
2023-04-24T07:39:52.154Z,36.26
2023-04-24T07:40:52.173Z,36.02
2023-04-24T07:41:52.248Z,36.28
2023-04-24T07:42:52.124Z,35.98
2023-04-24T07:43:52.118Z,35.52
2023-04-24T07:44:52.106Z,35.53
2023-04-24T07:45:52.141Z,35.45
2023-04-24T07:46:52.285Z,35.46
2023-04-24T07:47:52.155Z,35.64
2023-04-24T07:49:02.101Z,35.70
2023-04-24T07:49:53.081Z,35.59
2023-04-24T07:50:52.089Z,35.40
2023-04-24T07:51:52.264Z,35.97
2023-04-24T07:52:52.067Z,35.76
2023-04-24T07:53:52.036Z,35.87
2023-04-24T07:54:52.062Z,35.98
2023-04-24T07:55:52.038Z,36.22
2023-04-24T07:56:52.027Z,36.19
2023-04-24T07:57:52.084Z,36.23
2023-04-24T07:58:52.158Z,36.26
2023-04-24T07:59:52.231Z,36.26
2023-04-24T08:00:52.325Z,36.27
2023-04-24T08:01:52.747Z,36.25
2023-04-24T08:02:52.578Z,36.26
2023-04-24T08:03:52.881Z,36.26
2023-04-24T08:04:52.791Z,36.27
2023-04-24T08:05:52.782Z,36.24
2023-04-24T08:06:52.744Z,36.17
2023-04-24T08:07:52.708Z,36.12
2023-04-24T08:08:52.795Z,36.14
2023-04-24T08:09:52.820Z,36.16
2023-04-24T08:10:52.917Z,35.91
2023-04-24T08:11:53.263Z,35.87
2023-04-24T08:12:52.996Z,36.01
2023-04-24T08:13:53.056Z,36.26
2023-04-24T08:14:53.111Z,36.02
2023-04-24T08:15:53.210Z,36.18
2023-04-24T08:16:53.192Z,36.12
2023-04-24T08:17:53.307Z,36.06
2023-04-24T08:18:53.310Z,36.00
2023-04-24T08:19:53.355Z,35.90
2023-04-24T08:20:53.408Z,35.52
2023-04-24T08:21:53.767Z,35.80
2023-04-24T08:22:53.554Z,35.22
2023-04-24T08:23:53.624Z,35.13
2023-04-24T08:24:53.666Z,35.58
2023-04-24T08:25:53.738Z,35.49
2023-04-24T08:26:53.811Z,35.59
2023-04-24T08:27:53.885Z,35.58
2023-04-24T08:28:53.911Z,35.73
2023-04-24T08:29:53.984Z,35.63
2023-04-24T08:30:54.110Z,35.67
2023-04-24T08:31:54.298Z,35.65
2023-04-24T08:32:54.153Z,35.44
2023-04-24T08:33:54.183Z,35.61
2023-04-24T08:34:54.180Z,35.73
2023-04-24T08:35:54.226Z,35.81
2023-04-24T08:36:54.762Z,35.76
2023-04-24T08:37:54.305Z,36.06
2023-04-24T08:38:54.336Z,36.09
2023-04-24T08:39:54.383Z,36.08
2023-04-24T08:40:54.404Z,36.24
2023-04-24T08:41:54.787Z,36.77
2023-04-24T08:42:54.480Z,36.57
2023-04-24T08:43:54.485Z,36.37
2023-04-24T08:44:54.520Z,36.30
2023-04-24T08:45:57.000Z,36.26
2023-04-24T08:46:54.584Z,36.25
2023-04-24T08:47:54.585Z,36.27
2023-04-24T08:48:54.512Z,36.06
2023-04-24T08:49:54.517Z,36.34
2023-04-24T08:50:54.512Z,36.26
2023-04-24T08:51:54.764Z,36.23
2023-04-24T08:52:54.497Z,36.40
2023-04-24T08:53:54.478Z,36.39
2023-04-24T08:54:54.472Z,36.55
2023-04-24T08:55:54.493Z,36.49
2023-04-24T08:56:54.782Z,36.54
2023-04-24T08:57:54.438Z,36.53
2023-04-24T08:58:54.455Z,36.60
2023-04-24T08:59:54.428Z,36.57
2023-04-24T09:00:54.454Z,36.50
2023-04-24T09:01:54.976Z,36.57
2023-04-24T09:02:54.509Z,36.52
2023-04-24T09:03:54.664Z,36.61
2023-04-24T09:04:54.409Z,36.67
2023-04-24T09:05:54.409Z,36.56
2023-04-24T09:06:54.781Z,36.34
2023-04-24T09:07:54.395Z,36.32
2023-04-24T09:08:54.368Z,36.33
2023-04-24T09:09:54.385Z,36.34
2023-04-24T09:10:54.374Z,36.46
2023-04-24T09:11:54.348Z,36.45
2023-04-24T09:12:54.393Z,36.18
2023-04-24T09:13:54.337Z,36.35
2023-04-24T09:14:54.347Z,36.30
2023-04-24T09:15:54.334Z,36.29
2023-04-24T09:16:54.799Z,36.09
2023-04-24T09:17:54.391Z,36.34
2023-04-24T09:18:54.301Z,36.38
2023-04-24T09:19:54.301Z,36.23
2023-04-24T09:20:54.308Z,36.23
2023-04-24T09:21:54.290Z,36.13
2023-04-24T09:22:54.286Z,36.04
2023-04-24T09:23:54.274Z,36.25
2023-04-24T09:24:54.269Z,36.37
2023-04-24T09:25:54.266Z,36.29
2023-04-24T09:26:54.301Z,36.13
2023-04-24T09:27:54.240Z,36.45
2023-04-24T09:28:54.236Z,36.40
2023-04-24T09:29:54.230Z,36.24
2023-04-24T09:30:54.226Z,34.75
2023-04-24T09:31:54.272Z,35.19
2023-04-24T09:32:54.224Z,34.52
2023-04-24T09:33:54.197Z,35.44
2023-04-24T09:34:54.192Z,35.89
2023-04-24T09:35:54.189Z,36.18
2023-04-24T09:36:54.192Z,36.46
2023-04-24T09:37:54.191Z,35.69
2023-04-24T09:38:54.162Z,35.56
2023-04-24T09:39:54.189Z,36.07
2023-04-24T09:40:54.163Z,36.05
2023-04-24T09:41:54.177Z,35.94
2023-04-24T09:42:54.138Z,35.83
2023-04-24T09:43:54.154Z,35.66
2023-04-24T09:45:01.513Z,35.67
2023-04-24T09:45:56.844Z,35.66
2023-04-24T09:46:54.144Z,35.89
2023-04-24T09:47:54.246Z,35.88
2023-04-24T09:48:54.113Z,35.64
2023-04-24T09:49:54.093Z,35.75
2023-04-24T09:50:54.129Z,35.70
2023-04-24T09:51:54.085Z,35.54
2023-04-24T09:52:54.077Z,35.75
2023-04-24T09:53:54.093Z,35.74
2023-04-24T09:54:54.062Z,35.70
2023-04-24T09:55:54.073Z,35.59
2023-04-24T09:56:54.060Z,35.69
2023-04-24T09:57:54.060Z,35.63
2023-04-24T09:58:54.034Z,35.71
2023-04-24T09:59:54.046Z,35.79
2023-04-24T10:00:54.049Z,35.75
2023-04-24T10:01:54.049Z,35.80
2023-04-24T10:02:54.142Z,34.66
2023-04-24T10:03:54.016Z,35.54
2023-04-24T10:04:54.060Z,35.60
2023-04-24T10:05:54.000Z,35.50
2023-04-24T10:06:54.028Z,35.54
2023-04-24T10:07:54.008Z,35.06
2023-04-24T10:08:53.988Z,35.22
2023-04-24T10:09:53.995Z,35.09
2023-04-24T10:10:53.975Z,35.63
2023-04-24T10:11:53.954Z,35.44
2023-04-24T10:12:53.949Z,35.20
2023-04-24T10:13:53.963Z,35.64
2023-04-24T10:14:54.001Z,35.29
2023-04-24T10:15:54.130Z,35.29
2023-04-24T10:16:54.056Z,35.56
2023-04-24T10:17:54.116Z,35.46
2023-04-24T10:18:54.115Z,35.54
2023-04-24T10:19:54.147Z,34.78
2023-04-24T10:20:54.182Z,35.19
2023-04-24T10:21:54.321Z,35.30
2023-04-24T10:22:54.236Z,34.09
2023-04-24T10:23:54.292Z,34.54
2023-04-24T10:24:54.366Z,34.37
2023-04-24T10:25:54.406Z,34.75
2023-04-24T10:26:54.815Z,35.11
2023-04-24T10:27:54.431Z,34.80
2023-04-24T10:28:54.464Z,34.78
2023-04-24T10:29:54.502Z,34.62
2023-04-24T10:30:54.509Z,34.65
2023-04-24T10:31:54.622Z,34.78
2023-04-24T10:32:54.602Z,34.95
2023-04-24T10:33:54.552Z,35.08
2023-04-24T10:34:54.899Z,35.12
2023-04-24T10:35:54.639Z,35.12
2023-04-24T10:36:57.261Z,35.08
2023-04-24T10:37:54.691Z,35.06
2023-04-24T10:38:54.695Z,34.97
2023-04-24T10:39:54.673Z,34.92
2023-04-24T10:40:54.672Z,34.86
2023-04-24T10:41:54.819Z,34.79
2023-04-24T10:42:56.976Z,34.77
2023-04-24T10:43:54.643Z,34.75
2023-04-24T10:44:54.854Z,34.69
2023-04-24T10:45:54.645Z,34.65
2023-04-24T10:46:54.902Z,34.62
2023-04-24T10:47:54.641Z,34.58
2023-04-24T10:48:54.622Z,34.33
2023-04-24T10:49:54.595Z,34.43
2023-04-24T10:50:54.587Z,34.43
2023-04-24T10:51:54.831Z,34.08
2023-04-24T10:52:54.592Z,34.24
2023-04-24T10:53:54.557Z,34.19
2023-04-24T10:54:54.597Z,34.16
2023-04-24T10:55:54.589Z,34.23
2023-04-24T10:56:54.824Z,34.25
2023-04-24T10:57:54.562Z,34.22
2023-04-24T10:58:54.545Z,33.82
2023-04-24T10:59:54.616Z,33.94
2023-04-24T11:00:54.578Z,33.47
2023-04-24T11:01:54.526Z,33.57
2023-04-24T11:02:54.703Z,34.01
2023-04-24T11:03:54.611Z,33.96
2023-04-24T11:04:54.523Z,33.85
2023-04-24T11:05:54.528Z,33.98
2023-04-24T11:06:54.842Z,33.76
2023-04-24T11:07:54.496Z,33.93
2023-04-24T11:08:54.463Z,33.47
2023-04-24T11:09:54.470Z,33.60
2023-04-24T11:10:54.474Z,33.86
2023-04-24T11:11:54.828Z,33.51
2023-04-24T11:12:54.434Z,33.71
2023-04-24T11:13:54.458Z,33.69
2023-04-24T11:14:54.453Z,33.80
2023-04-24T11:15:54.413Z,33.72
2023-04-24T11:16:54.930Z,33.58
2023-04-24T11:17:54.481Z,33.77
2023-04-24T11:18:54.413Z,33.77
2023-04-24T11:19:56.180Z,33.82
2023-04-24T11:20:54.409Z,33.82
2023-04-24T11:21:54.826Z,33.77
2023-04-24T11:22:54.382Z,33.75
2023-04-24T11:23:54.391Z,33.73
2023-04-24T11:24:54.361Z,33.72
2023-04-24T11:25:54.368Z,33.66
2023-04-24T11:26:54.823Z,33.64
2023-04-24T11:27:54.348Z,33.59
2023-04-24T11:28:54.345Z,33.55
2023-04-24T11:29:54.391Z,33.50
2023-04-24T11:30:54.418Z,33.44
2023-04-24T11:31:54.494Z,33.38
2023-04-24T11:32:54.610Z,33.37
2023-04-24T11:33:54.514Z,33.35
2023-04-24T11:34:54.537Z,33.34
2023-04-24T11:35:54.587Z,33.31
2023-04-24T11:36:54.597Z,33.30
2023-04-24T11:38:54.625Z,33.27
2023-04-24T11:39:54.618Z,33.27
2023-04-24T11:40:54.609Z,33.25
2023-04-24T11:41:54.636Z,33.25
2023-04-24T11:42:54.572Z,33.24
2023-04-24T11:43:55.574Z,33.20
2023-04-24T11:44:54.580Z,33.19
2023-04-24T11:45:54.612Z,33.18
2023-04-24T11:46:54.543Z,33.17
2023-04-24T11:47:54.640Z,33.13
2023-04-24T11:48:54.552Z,33.11
2023-04-24T11:49:54.527Z,33.09
2023-04-24T11:50:54.540Z,33.06
2023-04-24T11:51:55.717Z,33.04
2023-04-24T11:52:54.513Z,33.02
2023-04-24T11:54:01.547Z,32.99
2023-04-24T11:54:55.519Z,32.99
2023-04-24T11:55:54.497Z,32.90
2023-04-24T11:56:54.479Z,32.88
2023-04-24T11:57:54.481Z,32.87
2023-04-24T11:58:54.488Z,32.83
2023-04-24T11:59:54.466Z,32.77
2023-04-24T12:00:54.452Z,32.72
2023-04-24T12:01:54.490Z,32.73
2023-04-24T12:02:54.539Z,32.66
2023-04-24T12:03:54.584Z,32.59
2023-04-24T12:04:54.742Z,32.60
2023-04-24T12:05:54.454Z,32.40
2023-04-24T12:06:54.882Z,34.02
2023-04-24T12:07:54.857Z,33.17
2023-04-24T12:08:55.179Z,33.16
2023-04-24T12:09:54.399Z,33.19
2023-04-24T12:10:54.412Z,34.04
2023-04-24T12:11:54.387Z,34.26
2023-04-24T12:12:54.372Z,33.48
2023-04-24T12:13:54.381Z,33.37
2023-04-24T12:14:54.359Z,33.14
2023-04-24T12:15:54.458Z,33.52
2023-04-24T12:16:54.410Z,33.49
2023-04-24T12:17:54.391Z,33.44
2023-04-24T12:18:54.336Z,33.35
2023-04-24T12:19:54.342Z,33.22
2023-04-24T12:20:54.322Z,32.75
2023-04-24T12:21:54.322Z,32.96
2023-04-24T12:22:54.312Z,33.06
2023-04-24T12:23:54.317Z,33.06
2023-04-24T12:24:54.292Z,33.01
2023-04-24T12:25:54.302Z,33.01
2023-04-24T12:26:54.298Z,32.97
2023-04-24T12:27:54.253Z,32.95
2023-04-24T12:28:54.279Z,32.90
2023-04-24T12:29:54.241Z,32.91
2023-04-24T12:30:54.353Z,32.85
2023-04-24T12:31:54.436Z,32.80
2023-04-24T12:32:54.269Z,32.76
2023-04-24T12:33:54.232Z,32.68
2023-04-24T12:34:54.234Z,32.64
2023-04-24T12:35:54.231Z,32.57
2023-04-24T12:36:54.205Z,32.53
2023-04-24T12:37:54.209Z,32.49
2023-04-24T12:38:54.213Z,32.44
2023-04-24T12:39:54.179Z,32.40
2023-04-24T12:40:54.181Z,32.34
2023-04-24T12:41:54.182Z,32.27
2023-04-24T12:42:55.233Z,32.23
2023-04-24T12:43:54.172Z,32.17
2023-04-24T12:44:54.169Z,32.16
2023-04-24T12:45:54.166Z,32.16
2023-04-24T12:46:54.146Z,32.09
2023-04-24T12:47:54.166Z,32.03
2023-04-24T12:48:54.142Z,31.98
2023-04-24T12:49:54.129Z,31.94
2023-04-24T12:50:54.126Z,31.89
2023-04-24T12:51:54.127Z,31.87
2023-04-24T12:52:54.116Z,31.83
2023-04-24T12:53:56.528Z,31.77